createdAt,value
2018-04-24T00:01:49.015Z,92243.16
2018-04-24T00:04:15.310Z,92248.49
2018-04-24T00:06:41.612Z,92250.70
2018-04-24T00:09:07.895Z,92245.80
2018-04-24T00:11:34.587Z,92245.19
2018-04-24T00:14:00.912Z,92245.34
2018-04-24T00:16:27.186Z,92247.07
2018-04-24T00:18:53.544Z,92241.18
2018-04-24T00:21:19.816Z,92247.15
2018-04-24T00:23:46.105Z,92251.58
2018-04-24T00:26:12.415Z,92251.73
2018-04-24T00:28:38.680Z,92245.45
2018-04-24T00:31:04.991Z,92243.83
2018-04-24T00:33:31.877Z,92249.46
2018-04-24T00:35:58.211Z,92241.81
2018-04-24T00:38:25.435Z,92246.57
2018-04-24T00:40:51.754Z,92245.92
2018-04-24T00:43:18.011Z,92246.83
2018-04-24T00:45:44.354Z,92243.95
2018-04-24T00:48:10.671Z,92243.48
2018-04-24T00:50:36.935Z,92248.33
2018-04-24T00:53:15.840Z,92248.80
2018-04-24T00:55:42.146Z,92258.15
2018-04-24T00:58:08.412Z,92254.98
2018-04-24T01:00:40.356Z,92252.19
2018-04-24T01:03:06.666Z,92254.94
2018-04-24T01:05:32.975Z,92252.28
2018-04-24T01:07:59.274Z,92254.72
2018-04-24T01:10:25.622Z,92256.69
2018-04-24T01:12:51.891Z,92253.70
2018-04-24T01:15:18.175Z,92259.02
2018-04-24T01:17:44.838Z,92250.96
2018-04-24T01:20:11.120Z,92260.19
2018-04-24T01:22:37.392Z,92262.19
2018-04-24T01:25:04.183Z,92258.20
2018-04-24T01:27:30.442Z,92259.93
2018-04-24T01:29:56.714Z,92255.47
2018-04-24T01:32:24.400Z,92256.54
2018-04-24T01:34:50.675Z,92254.59
2018-04-24T01:37:16.941Z,92263.88
2018-04-24T01:39:43.279Z,92258.61
2018-04-24T01:42:09.565Z,92261.59
2018-04-24T01:44:35.895Z,92257.70
2018-04-24T01:47:02.216Z,92262.31
2018-04-24T01:49:28.507Z,92261.12
2018-04-24T01:51:54.792Z,92261.50
2018-04-24T01:54:21.384Z,92255.69
2018-04-24T01:56:47.698Z,92259.57
2018-04-24T01:59:14.450Z,92258.70
2018-04-24T02:01:43.651Z,92254.39
2018-04-24T02:04:09.932Z,92252.58
2018-04-24T02:06:36.278Z,92261.22
2018-04-24T02:09:02.666Z,92259.92
2018-04-24T02:11:28.944Z,92259.75
2018-04-24T02:13:56.294Z,92262.40
2018-04-24T02:16:22.548Z,92261.59
2018-04-24T02:18:48.871Z,92260.27
2018-04-24T02:21:15.159Z,92264.22
2018-04-24T02:23:41.432Z,92260.48
2018-04-24T02:26:07.757Z,92268.36
2018-04-24T02:28:34.022Z,92261.86
2018-04-24T02:31:00.647Z,92266.35
2018-04-24T02:33:26.918Z,92266.96
2018-04-24T02:35:53.200Z,92273.70
2018-04-24T02:38:19.545Z,92275.56
2018-04-24T02:40:45.815Z,92274.51
2018-04-24T02:43:12.095Z,92281.84
2018-04-24T02:45:41.713Z,92281.52
2018-04-24T02:48:07.975Z,92286.88
2018-04-24T02:50:34.317Z,92272.05
2018-04-24T02:53:00.658Z,92283.03
2018-04-24T02:55:27.029Z,92285.43
2018-04-24T02:57:53.641Z,92284.27
2018-04-24T03:00:19.907Z,92287.45
2018-04-24T03:02:46.406Z,92287.77
2018-04-24T03:05:12.969Z,92294.87
2018-04-24T03:07:39.293Z,92295.52
2018-04-24T03:10:05.613Z,92295.70
2018-04-24T03:12:31.907Z,92300.06
2018-04-24T03:14:58.185Z,92291.26
2018-04-24T03:17:24.510Z,92297.38
2018-04-24T03:19:50.779Z,92295.44
2018-04-24T03:22:17.053Z,92299.09
2018-04-24T03:24:43.801Z,92296.67
2018-04-24T03:27:10.058Z,92292.59
2018-04-24T03:29:36.365Z,92291.52
2018-04-24T03:32:02.655Z,92294.91
2018-04-24T03:34:29.361Z,92294.98
2018-04-24T03:36:55.623Z,92289.91
2018-04-24T03:39:21.903Z,92297.16
2018-04-24T03:41:48.669Z,92295.63
2018-04-24T03:44:14.976Z,92298.29
2018-04-24T03:46:41.246Z,92300.27
2018-04-24T03:49:07.656Z,92291.02
2018-04-24T03:51:33.978Z,92302.92
2018-04-24T03:54:00.247Z,92308.89
2018-04-24T03:56:26.591Z,92307.07
2018-04-24T03:58:53.799Z,92314.64
2018-04-24T04:01:22.962Z,92315.12
2018-04-24T04:03:49.227Z,92316.05
2018-04-24T04:06:15.611Z,92326.59
2018-04-24T04:08:41.876Z,92327.58
2018-04-24T04:11:08.230Z,92328.45
2018-04-24T04:13:34.558Z,92323.64
2018-04-24T04:16:00.918Z,92326.53
2018-04-24T04:18:39.610Z,92330.19
2018-04-24T04:21:18.095Z,92327.25
2018-04-24T04:23:56.614Z,92334.85
2018-04-24T04:26:22.984Z,92337.41
2018-04-24T04:28:49.264Z,92331.84
2018-04-24T04:31:15.540Z,92338.92
2018-04-24T04:33:42.167Z,92333.72
2018-04-24T04:36:08.441Z,92334.25
2018-04-24T04:38:34.752Z,92338.02
2018-04-24T04:41:01.021Z,92339.42
2018-04-24T04:43:27.358Z,92340.61
2018-04-24T04:45:53.621Z,92343.89
2018-04-24T04:48:19.887Z,92339.43
2018-04-24T04:50:46.387Z,92344.67
2018-04-24T04:53:12.638Z,92343.37
2018-04-24T04:55:39.007Z,92350.02
2018-04-24T04:58:05.603Z,92350.33
2018-04-24T05:00:31.879Z,92346.69
2018-04-24T05:02:58.174Z,92349.56
2018-04-24T05:05:24.485Z,92353.38
2018-04-24T05:07:50.755Z,92349.69
2018-04-24T05:10:17.011Z,92354.78
2018-04-24T05:12:43.367Z,92351.87
2018-04-24T05:15:09.637Z,92357.41
2018-04-24T05:17:35.903Z,92349.73
2018-04-24T05:20:02.433Z,92358.73
2018-04-24T05:22:28.672Z,92358.97
2018-04-24T05:24:54.950Z,92359.89
2018-04-24T05:27:21.264Z,92366.98
2018-04-24T05:29:47.530Z,92363.23
2018-04-24T05:32:13.790Z,92356.41
2018-04-24T05:34:40.342Z,92359.27
2018-04-24T05:37:06.638Z,92357.39
2018-04-24T05:39:33.015Z,92356.53
2018-04-24T05:41:59.287Z,92354.42
2018-04-24T05:44:25.575Z,92356.17
2018-04-24T05:46:52.003Z,92355.81
2018-04-24T05:49:18.257Z,92355.73
2018-04-24T05:51:44.822Z,92359.86
2018-04-24T05:54:11.407Z,92362.06
2018-04-24T05:56:37.700Z,92356.63
2018-04-24T05:59:04.102Z,92367.63
2018-04-24T06:01:30.324Z,92367.02
2018-04-24T06:03:56.591Z,92367.23
2018-04-24T06:06:22.966Z,92364.73
2018-04-24T06:08:49.241Z,92375.73
2018-04-24T06:11:15.519Z,92366.26
2018-04-24T06:13:42.158Z,92366.72
2018-04-24T06:16:08.482Z,92362.71
2018-04-24T06:18:34.797Z,92363.89
2018-04-24T06:21:01.314Z,92366.06
2018-04-24T06:23:27.604Z,92360.27
2018-04-24T06:25:53.884Z,92358.84
2018-04-24T06:28:20.306Z,92362.88
2018-04-24T06:30:46.516Z,92360.76
2018-04-24T06:33:12.879Z,92359.64
2018-04-24T06:35:39.158Z,92359.74
2018-04-24T06:38:05.440Z,92355.70
2018-04-24T06:40:33.523Z,92358.33
2018-04-24T06:42:59.840Z,92356.20
2018-04-24T06:45:26.124Z,92355.83
2018-04-24T06:47:52.462Z,92360.39
2018-04-24T06:50:18.821Z,92360.56
2018-04-24T06:52:45.096Z,92359.56
2018-04-24T06:55:11.383Z,92360.74
2018-04-24T06:57:37.946Z,92359.45
2018-04-24T07:00:05.970Z,92366.35
2018-04-24T07:02:32.250Z,92356.78
2018-04-24T07:04:58.535Z,92356.98
2018-04-24T07:07:25.415Z,92355.67
2018-04-24T07:09:51.682Z,92359.40
2018-04-24T07:12:17.942Z,92353.56
2018-04-24T07:14:44.246Z,92348.73
2018-04-24T07:20:40.370Z,92350.55
2018-04-24T07:23:06.692Z,92346.84
2018-04-24T07:25:33.015Z,92346.63
2018-04-24T07:27:59.267Z,92349.49
2018-04-24T07:30:25.580Z,92343.14
2018-04-24T07:32:51.934Z,92346.28
2018-04-24T07:35:18.361Z,92342.23
2018-04-24T07:37:44.623Z,92339.27
2018-04-24T07:40:11.135Z,92338.59
2018-04-24T07:42:37.454Z,92339.25
2018-04-24T07:45:03.771Z,92332.52
2018-04-24T07:47:30.046Z,92330.90
2018-04-24T07:49:56.964Z,92327.06
2018-04-24T07:52:23.221Z,92322.78
2018-04-24T07:54:49.573Z,92320.65
2018-04-24T07:57:15.840Z,92326.13
2018-04-24T07:59:42.114Z,92316.18
2018-04-24T08:02:13.293Z,92314.00
2018-04-24T08:04:39.627Z,92314.22
2018-04-24T08:07:05.894Z,92307.61
2018-04-24T08:09:32.621Z,92307.57
2018-04-24T08:11:58.888Z,92305.02
2018-04-24T08:14:25.220Z,92308.00
2018-04-24T08:16:51.501Z,92307.51
2018-04-24T08:19:17.782Z,92316.83
2018-04-24T08:21:44.106Z,92303.09
2018-04-24T08:24:10.372Z,92310.84
2018-04-24T08:26:37.155Z,92306.10
2018-04-24T08:29:03.831Z,92311.41
2018-04-24T08:31:30.111Z,92305.84
2018-04-24T08:33:56.375Z,92302.39
2018-04-24T08:36:22.685Z,92299.34
2018-04-24T08:38:48.948Z,92297.64
2018-04-24T08:41:15.222Z,92298.48
2018-04-24T08:43:41.539Z,92292.69
2018-04-24T08:46:07.848Z,92293.45
2018-04-24T08:48:34.132Z,92291.62
2018-04-24T08:51:00.733Z,92291.95
2018-04-24T08:53:27.005Z,92289.02
2018-04-24T08:55:53.312Z,92279.14
2018-04-24T08:58:19.986Z,92285.01
2018-04-24T09:00:46.274Z,92285.78
2018-04-24T09:03:12.967Z,92275.38
2018-04-24T09:05:39.328Z,92282.70
2018-04-24T09:08:05.605Z,92268.41
2018-04-24T09:10:31.888Z,92274.11
2018-04-24T09:12:58.578Z,92262.84
2018-04-24T09:15:24.962Z,92264.09
2018-04-24T09:17:51.250Z,92264.28
2018-04-24T09:20:17.535Z,92259.95
2018-04-24T09:22:43.874Z,92264.09
2018-04-24T09:25:10.233Z,92257.82
2018-04-24T09:27:36.566Z,92256.72
2018-04-24T09:30:03.839Z,92249.83
2018-04-24T09:32:30.252Z,92245.85
2018-04-24T09:34:56.775Z,92246.20
2018-04-24T09:37:23.139Z,92249.78
2018-04-24T09:39:49.403Z,92238.12
2018-04-24T09:42:15.667Z,92237.56
2018-04-24T09:44:41.991Z,92235.15
2018-04-24T09:47:08.288Z,92233.58
2018-04-24T09:49:34.638Z,92235.82
2018-04-24T09:52:03.645Z,92229.64
2018-04-24T09:54:30.075Z,92236.84
2018-04-24T09:56:56.368Z,92232.91
2018-04-24T09:59:22.659Z,92236.61
2018-04-24T10:01:48.975Z,92232.88
2018-04-24T10:04:15.244Z,92222.64
2018-04-24T10:06:41.530Z,92224.45
2018-04-24T10:09:07.840Z,92226.57
2018-04-24T10:11:34.111Z,92228.98
2018-04-24T10:14:00.385Z,92228.89
2018-04-24T10:16:26.781Z,92221.70
2018-04-24T10:18:53.060Z,92217.02
2018-04-24T10:21:19.345Z,92216.66
2018-04-24T10:23:45.650Z,92215.91
2018-04-24T10:26:12.396Z,92217.86
2018-04-24T10:28:38.658Z,92211.53
2018-04-24T10:31:04.984Z,92208.78
2018-04-24T10:33:31.982Z,92203.06
2018-04-24T10:35:58.938Z,92198.13
2018-04-24T10:38:25.448Z,92199.39
2018-04-24T10:40:51.723Z,92199.70
2018-04-24T10:43:18.103Z,92197.59
2018-04-24T10:45:44.369Z,92193.62
2018-04-24T10:48:10.695Z,92193.98
2018-04-24T10:50:37.000Z,92193.03
2018-04-24T10:53:03.367Z,92191.22
2018-04-24T10:55:29.647Z,92184.00
2018-04-24T10:57:55.923Z,92195.55
2018-04-24T11:00:22.312Z,92190.70
2018-04-24T11:02:48.586Z,92186.41
2018-04-24T11:05:15.133Z,92189.38
2018-04-24T11:07:42.098Z,92181.03
2018-04-24T11:10:08.388Z,92182.52
2018-04-24T11:12:34.651Z,92178.01
2018-04-24T11:15:01.380Z,92179.21
2018-04-24T11:17:27.755Z,92168.84
2018-04-24T11:19:54.118Z,92178.55
2018-04-24T11:22:20.413Z,92172.94
2018-04-24T11:24:46.723Z,92167.14
2018-04-24T11:27:13.209Z,92170.98
2018-04-24T11:29:39.535Z,92161.77
2018-04-24T11:32:05.820Z,92162.91
2018-04-24T11:34:32.200Z,92169.16
2018-04-24T11:36:58.437Z,92162.47
2018-04-24T11:39:24.726Z,92162.66
2018-04-24T11:41:51.425Z,92167.88
2018-04-24T11:44:17.713Z,92164.40
2018-04-24T11:46:44.037Z,92160.09
2018-04-24T11:49:10.376Z,92160.36
2018-04-24T11:51:36.696Z,92142.70
2018-04-24T11:54:03.192Z,92146.55
2018-04-24T11:56:29.464Z,92150.66
2018-04-24T11:58:55.863Z,92148.94
2018-04-24T12:01:24.028Z,92130.45
2018-04-24T12:03:50.292Z,92139.53
2018-04-24T12:06:16.630Z,92135.90
2018-04-24T12:08:42.959Z,92131.78
2018-04-24T12:11:09.230Z,92128.16
2018-04-24T12:13:35.582Z,92121.41
2018-04-24T12:16:01.841Z,92119.98
2018-04-24T12:18:28.346Z,92120.87
2018-04-24T12:20:54.669Z,92110.74
2018-04-24T12:23:21.021Z,92111.51
2018-04-24T12:25:47.355Z,92111.75
2018-04-24T12:28:13.946Z,92108.59
2018-04-24T12:30:40.239Z,92099.38
2018-04-24T12:33:06.515Z,92098.49
2018-04-24T12:35:32.782Z,92098.90
2018-04-24T12:37:59.161Z,92101.95
2018-04-24T12:40:25.471Z,92089.12
2018-04-24T12:42:51.758Z,92095.83
2018-04-24T12:45:18.173Z,92087.86
2018-04-24T12:47:44.402Z,92083.06
2018-04-24T12:50:10.663Z,92081.92
2018-04-24T12:52:37.291Z,92074.41
2018-04-24T12:55:03.592Z,92074.24
2018-04-24T12:57:30.729Z,92071.13
2018-04-24T12:59:57.007Z,92066.86
2018-04-24T13:02:26.097Z,92056.20
2018-04-24T13:04:52.544Z,92056.20
2018-04-24T13:07:18.819Z,92056.48
2018-04-24T13:09:45.112Z,92056.56
2018-04-24T13:12:11.706Z,92058.57
2018-04-24T13:14:38.016Z,92047.98
2018-04-24T13:17:04.285Z,92049.28
2018-04-24T13:19:30.556Z,92053.00
2018-04-24T13:21:56.879Z,92051.02
2018-04-24T13:24:23.167Z,92050.23
2018-04-24T13:26:49.583Z,92047.75
2018-04-24T13:29:15.861Z,92042.43
2018-04-24T13:31:42.980Z,92048.93
2018-04-24T13:34:09.645Z,92046.95
2018-04-24T13:36:35.975Z,92046.09
2018-04-24T13:39:02.366Z,92044.25
2018-04-24T13:41:28.644Z,92041.43
2018-04-24T13:43:54.971Z,92037.27
2018-04-24T13:46:21.339Z,92042.72
2018-04-24T13:48:47.648Z,92036.28
2018-04-24T13:51:13.916Z,92036.22
2018-04-24T13:53:40.388Z,92028.25
2018-04-24T13:56:06.664Z,92027.61
2018-04-24T13:58:33.060Z,92029.33
2018-04-24T14:00:59.352Z,92030.38
2018-04-24T14:03:25.827Z,92028.30
2018-04-24T14:05:55.692Z,92019.63
2018-04-24T14:08:21.975Z,92024.08
2018-04-24T14:10:48.599Z,92013.73
2018-04-24T14:13:14.859Z,92009.56
2018-04-24T14:15:41.135Z,92023.44
2018-04-24T14:18:07.428Z,92011.97
2018-04-24T14:20:34.039Z,92015.69
2018-04-24T14:23:00.456Z,92009.73
2018-04-24T14:25:26.746Z,92013.17
2018-04-24T14:27:53.030Z,92008.49
2018-04-24T14:30:19.352Z,92004.58
2018-04-24T14:32:45.691Z,92005.31
2018-04-24T14:35:11.955Z,92007.56
2018-04-24T14:37:38.269Z,92007.12
2018-04-24T14:40:04.585Z,92007.67
2018-04-24T14:42:30.855Z,92005.58
2018-04-24T14:44:57.258Z,92015.02
2018-04-24T14:47:23.540Z,92006.94
2018-04-24T14:49:49.813Z,92007.48
2018-04-24T14:52:19.325Z,92006.97
2018-04-24T14:57:19.161Z,92009.34
2018-04-24T14:59:45.488Z,92009.11
2018-04-24T15:02:14.974Z,92010.02
2018-04-24T15:04:41.603Z,92005.05
2018-04-24T15:07:11.263Z,92005.35
2018-04-24T15:09:38.080Z,92002.56
2018-04-24T15:12:04.415Z,92006.33
2018-04-24T15:14:30.966Z,92006.75
2018-04-24T15:16:59.801Z,92003.41
2018-04-24T15:19:30.056Z,92001.81
2018-04-24T15:21:56.387Z,92000.15
2018-04-24T15:24:22.778Z,92003.50
2018-04-24T15:26:49.040Z,92005.69
2018-04-24T15:29:15.837Z,92004.11
2018-04-24T15:31:42.557Z,92000.19
2018-04-24T15:34:08.838Z,92001.84
2018-04-24T15:36:35.150Z,92004.07
2018-04-24T15:39:01.416Z,91998.59
2018-04-24T15:41:27.764Z,92007.08
2018-04-24T15:43:54.040Z,91998.03
2018-04-24T15:46:20.344Z,92000.50
2018-04-24T15:48:46.675Z,91999.70
2018-04-24T15:51:12.956Z,92001.06
2018-04-24T15:53:39.222Z,92007.57
2018-04-24T15:56:05.522Z,92010.34
2018-04-24T15:58:31.796Z,92005.42
2018-04-24T16:00:58.058Z,92007.42
2018-04-24T16:03:25.231Z,92014.55
2018-04-24T16:05:51.534Z,92009.94
2018-04-24T16:08:17.863Z,92009.36
2018-04-24T16:10:44.135Z,92021.67
2018-04-24T16:13:10.476Z,92013.81
2018-04-24T16:15:36.754Z,92010.34
2018-04-24T16:18:03.182Z,92011.03
2018-04-24T16:20:29.464Z,92016.54
2018-04-24T16:22:55.748Z,92011.78
2018-04-24T16:25:22.334Z,92006.53
2018-04-24T16:27:48.618Z,92007.48
2018-04-24T16:30:14.937Z,92012.55
2018-04-24T16:32:41.280Z,92014.14
2018-04-24T16:35:07.653Z,92015.28
2018-04-24T16:37:33.923Z,92014.52
2018-04-24T16:40:00.178Z,92015.83
2018-04-24T16:42:26.884Z,92012.48
2018-04-24T16:44:53.169Z,92014.64
2018-04-24T16:47:19.506Z,92016.09
2018-04-24T16:49:45.842Z,92023.05
2018-04-24T16:52:12.180Z,92023.65
2018-04-24T16:54:38.595Z,92028.65
2018-04-24T16:57:05.469Z,92033.97
2018-04-24T16:59:31.692Z,92038.77
2018-04-24T17:01:57.966Z,92035.00
2018-04-24T17:04:24.630Z,92035.77
2018-04-24T17:06:50.909Z,92045.84
2018-04-24T17:09:17.225Z,92044.95
2018-04-24T17:11:43.552Z,92046.81
2018-04-24T17:14:09.905Z,92050.05
2018-04-24T17:16:36.171Z,92058.02
2018-04-24T17:19:02.455Z,92051.94
2018-04-24T17:21:29.199Z,92056.78
2018-04-24T17:23:55.498Z,92054.48
2018-04-24T17:26:21.778Z,92058.84
2018-04-24T17:28:48.088Z,92060.63
2018-04-24T17:31:14.407Z,92062.72
2018-04-24T17:33:40.819Z,92061.97
2018-04-24T17:36:07.107Z,92065.19
2018-04-24T17:38:33.391Z,92069.38
2018-04-24T17:41:00.015Z,92066.16
2018-04-24T17:43:27.158Z,92071.09
2018-04-24T17:45:53.422Z,92069.19
2018-04-24T17:48:19.801Z,92077.25
2018-04-24T17:50:46.075Z,92082.70
2018-04-24T17:53:12.434Z,92079.89
2018-04-24T17:55:38.937Z,92079.70
2018-04-24T17:58:05.225Z,92087.62
2018-04-24T18:00:31.597Z,92089.52
2018-04-24T18:02:57.871Z,92091.66
2018-04-24T18:05:24.682Z,92085.07
2018-04-24T18:07:50.956Z,92091.25
2018-04-24T18:10:17.413Z,92095.16
2018-04-24T18:12:43.707Z,92102.61
2018-04-24T18:15:09.980Z,92099.66
2018-04-24T18:17:36.375Z,92111.45
2018-04-24T18:20:02.795Z,92115.63
2018-04-24T18:22:29.136Z,92122.81
2018-04-24T18:24:55.428Z,92125.10
2018-04-24T18:27:21.735Z,92131.09
2018-04-24T18:29:48.103Z,92137.19
2018-04-24T18:32:14.388Z,92148.56
2018-04-24T18:34:40.705Z,92159.25
2018-04-24T18:37:10.973Z,92159.75
2018-04-24T18:39:37.267Z,92160.33
2018-04-24T18:42:03.603Z,92153.95
2018-04-24T18:44:29.945Z,92159.17
2018-04-24T18:46:56.230Z,92157.58
2018-04-24T18:49:22.500Z,92163.52
2018-04-24T18:51:48.946Z,92160.68
2018-04-24T18:54:15.295Z,92154.78
2018-04-24T18:56:41.844Z,92157.69
2018-04-24T18:59:08.117Z,92162.91
2018-04-24T19:01:34.430Z,92156.79
2018-04-24T19:04:00.721Z,92168.13
2018-04-24T19:06:27.087Z,92167.39
2018-04-24T19:08:53.368Z,92165.80
2018-04-24T19:11:19.708Z,92170.10
2018-04-24T19:13:46.043Z,92171.77
2018-04-24T19:16:12.441Z,92178.82
2018-04-24T19:18:44.663Z,92183.48
2018-04-24T19:21:10.985Z,92181.95
2018-04-24T19:23:37.313Z,92180.86
2018-04-24T19:26:03.567Z,92181.75
2018-04-24T19:28:29.921Z,92183.83
2018-04-24T19:30:56.249Z,92184.47
2018-04-24T19:33:22.725Z,92184.17
2018-04-24T19:35:49.102Z,92187.66
2018-04-24T19:38:16.351Z,92192.04
2018-04-24T19:40:48.590Z,92195.64
2018-04-24T19:43:14.998Z,92194.84
2018-04-24T19:45:41.380Z,92201.97
2018-04-24T19:48:07.923Z,92206.84
2018-04-24T19:50:35.174Z,92205.92
2018-04-24T19:53:01.529Z,92213.06
2018-04-24T19:55:27.886Z,92222.52
2018-04-24T19:57:54.218Z,92208.42
2018-04-24T20:00:20.557Z,92223.09
2018-04-24T20:02:46.931Z,92232.68
2018-04-24T20:05:13.206Z,92234.56
2018-04-24T20:07:39.472Z,92239.00
2018-04-24T20:10:08.875Z,92245.44
2018-04-24T20:12:35.163Z,92245.42
2018-04-24T20:15:01.580Z,92248.79
2018-04-24T20:17:27.915Z,92255.91
2018-04-24T20:19:54.274Z,92258.65
2018-04-24T20:22:20.559Z,92257.62
2018-04-24T20:24:46.862Z,92265.98
2018-04-24T20:27:13.322Z,92262.22
2018-04-24T20:29:39.593Z,92260.19
2018-04-24T20:32:05.870Z,92265.73
2018-04-24T20:34:32.187Z,92267.74
2018-04-24T20:36:58.454Z,92271.37
2018-04-24T20:39:24.721Z,92266.58
2018-04-24T20:41:51.062Z,92263.42
2018-04-24T20:44:17.527Z,92269.01
2018-04-24T20:46:43.915Z,92268.23
2018-04-24T20:49:10.179Z,92270.55
2018-04-24T20:51:36.563Z,92270.30
2018-04-24T20:54:02.858Z,92271.95
2018-04-24T20:56:29.165Z,92274.70
2018-04-24T20:58:56.334Z,92276.78
2018-04-24T21:01:22.616Z,92273.24
2018-04-24T21:03:49.452Z,92271.02
2018-04-24T21:06:15.763Z,92269.17
2018-04-24T21:08:42.019Z,92279.08
2018-04-24T21:11:08.458Z,92277.45
2018-04-24T21:13:34.737Z,92275.97
2018-04-24T21:16:04.275Z,92279.03
2018-04-24T21:18:30.551Z,92278.27
2018-04-24T21:23:29.480Z,92287.73
2018-04-24T21:25:55.860Z,92289.98
2018-04-24T21:28:22.223Z,92295.13
2018-04-24T21:30:48.502Z,92301.36
2018-04-24T21:33:14.767Z,92294.95
2018-04-24T21:35:41.141Z,92290.88
2018-04-24T21:38:07.407Z,92296.69
2018-04-24T21:40:33.710Z,92297.75
2018-04-24T21:42:59.996Z,92303.77
2018-04-24T21:45:26.313Z,92300.53
2018-04-24T21:47:52.650Z,92302.08
2018-04-24T21:50:19.155Z,92311.26
2018-04-24T21:52:45.510Z,92318.60
2018-04-24T21:55:11.762Z,92320.68
2018-04-24T21:57:38.053Z,92324.91
2018-04-24T22:00:04.447Z,92329.80
2018-04-24T22:02:30.714Z,92323.06
2018-04-24T22:04:57.091Z,92330.56
2018-04-24T22:07:23.418Z,92340.16
2018-04-24T22:09:49.682Z,92327.15
2018-04-24T22:12:15.969Z,92330.40
2018-04-24T22:14:42.510Z,92324.92
2018-04-24T22:17:08.795Z,92326.34
2018-04-24T22:19:35.079Z,92335.44
2018-04-24T22:22:01.407Z,92343.80
2018-04-24T22:24:27.911Z,92352.58
2018-04-24T22:26:54.187Z,92359.97
2018-04-24T22:29:20.446Z,92353.93
2018-04-24T22:31:46.802Z,92359.17
2018-04-24T22:34:13.127Z,92361.52
2018-04-24T22:36:39.444Z,92356.83
2018-04-24T22:39:05.804Z,92359.53
2018-04-24T22:41:32.126Z,92361.66
2018-04-24T22:43:58.459Z,92365.20
2018-04-24T22:46:24.737Z,92360.76
2018-04-24T22:48:51.418Z,92351.92
2018-04-24T22:51:17.684Z,92359.58
2018-04-24T22:53:43.952Z,92350.78
2018-04-24T22:56:10.306Z,92353.48
2018-04-24T22:58:36.593Z,92358.77
2018-04-24T23:01:02.879Z,92365.70
2018-04-24T23:03:29.300Z,92370.81
2018-04-24T23:05:55.583Z,92378.20
2018-04-24T23:08:21.853Z,92387.32
2018-04-24T23:11:00.394Z,92391.38
2018-04-24T23:13:38.893Z,92403.63
2018-04-24T23:16:17.362Z,92412.72
2018-04-24T23:18:55.767Z,92423.32
2018-04-24T23:21:21.829Z,92422.03
2018-04-24T23:23:48.113Z,92429.50
2018-04-24T23:26:14.416Z,92419.91
2018-04-24T23:28:43.402Z,92427.45
2018-04-24T23:31:09.714Z,92423.02
2018-04-24T23:33:36.033Z,92414.17
2018-04-24T23:36:02.439Z,92419.61
2018-04-24T23:38:28.816Z,92414.27
2018-04-24T23:40:55.104Z,92417.74
2018-04-24T23:43:23.982Z,92417.11
2018-04-24T23:45:50.321Z,92413.01
2018-04-24T23:48:16.601Z,92417.03
2018-04-24T23:50:42.898Z,92427.48
2018-04-24T23:53:09.262Z,92423.63
2018-04-24T23:55:35.558Z,92420.80
2018-04-24T23:58:01.849Z,92421.86
